Other Surface Observations
Issued by NWS Great Falls, MT

Home | Current Version | Previous Version | Text Only | Print | Product List | Glossary On
Versions: 1 2 3 4 5 6 7 8 9 10 11 12 13 14 15 16 17 18 19 20 21 22 23 24 25 26 27 28 29 30 31 32 33 34 35 36 37 38 39 40 41 42 43 44 45 46 47 48 49 50
000
SXUS55 KTFX 280538
OSOTFX
AREA AWOS OBSERVATIONS
NATIONAL WEATHER SERVICE GREAT FALLS MT
1135 PM MDT WED AUG 27 2014

METAR KPWD 280530Z AUTO 11007KT 10SM 17/13 A2991 RMK PLENTYWOOD
METAR K1S3 280530Z AUTO 25004KT 10SM 19/12 A2997 RMK FORSYTH
METAR KS71 280530Z AUTO 00000KT 10SM 16/13 A2990 RMK CHINOOK
METAR K6S0 280530Z AUTO 10SM 17/07 A3011 RMK BIG TIMBER
METAR K79S 280530Z AUTO 00000KT 10SM 18/09 A2997 RMK FORT BENTON
METAR KEKS 280530Z AUTO 02005KT 10SM 17/06 A3024 RMK ENNIS
METAR K38S 280530Z AUTO 00000KT 10SM 12/08 A3017 RMK DEER LODGE
METAR K6S5 280530Z AUTO 17008KT 10SM 17/08 A3008 RMK HAMILTON
METAR KS59 280530Z AUTO 00000KT 10SM 16/06 A2998 RMK LIBBY
METAR K88M 280530Z AUTO 14006KT 10SM 20/08 A2996 RMK EUREKA



USA.gov is the U.S. government's official web portal to all federal, state and local government web resources and services.